createdAt,value
2019-04-28T00:02:17.546Z,56.75
2019-04-28T00:04:47.163Z,56.84
2019-04-28T00:07:16.753Z,57.27
2019-04-28T00:09:46.319Z,57.92
2019-04-28T00:12:15.791Z,57.70
2019-04-28T00:14:45.747Z,58.23
2019-04-28T00:17:15.261Z,57.33
2019-04-28T00:19:44.832Z,57.39
2019-04-28T00:22:31.337Z,57.13
2019-04-28T00:25:02.509Z,57.76
2019-04-28T00:27:32.012Z,57.20
2019-04-28T00:30:02.091Z,57.11
2019-04-28T00:32:32.534Z,57.45
2019-04-28T00:35:02.528Z,58.24
2019-04-28T00:37:33.224Z,58.46
2019-04-28T00:40:02.817Z,58.43
2019-04-28T00:42:32.293Z,57.79
2019-04-28T00:45:02.047Z,57.78
2019-04-28T00:47:31.751Z,57.49
2019-04-28T00:50:02.096Z,58.59
2019-04-28T00:52:32.161Z,58.31
2019-04-28T00:55:01.815Z,58.70
2019-04-28T00:57:31.369Z,59.15
2019-04-28T01:00:02.458Z,59.05
2019-04-28T01:02:41.254Z,58.16
2019-04-28T01:05:11.883Z,57.77
2019-04-28T01:07:41.601Z,58.07
2019-04-28T01:10:12.831Z,58.67
2019-04-28T01:12:42.419Z,58.59
2019-04-28T01:15:14.310Z,58.46
2019-04-28T01:17:57.189Z,58.25
2019-04-28T01:20:26.834Z,58.81
2019-04-28T01:22:56.361Z,58.28
2019-04-28T01:25:25.860Z,58.13
2019-04-28T01:27:55.982Z,58.06
2019-04-28T01:30:29.882Z,57.86
2019-04-28T01:33:03.795Z,57.91
2019-04-28T01:35:33.419Z,57.98
2019-04-28T01:38:02.887Z,57.97
2019-04-28T01:40:33.915Z,57.79
2019-04-28T01:43:03.467Z,58.02
2019-04-28T01:45:32.957Z,58.22
2019-04-28T01:48:02.485Z,59.04
2019-04-28T01:50:31.972Z,58.61
2019-04-28T01:53:01.444Z,58.68
2019-04-28T01:55:30.918Z,58.23
2019-04-28T01:58:00.398Z,58.82
2019-04-28T02:00:37.295Z,59.18
2019-04-28T02:03:10.318Z,59.68
2019-04-28T02:05:40.549Z,59.36
2019-04-28T02:08:10.320Z,59.10
2019-04-28T02:10:40.249Z,59.26
2019-04-28T02:13:11.368Z,58.64
2019-04-28T02:15:40.980Z,58.62
2019-04-28T02:18:10.474Z,58.82
2019-04-28T02:20:41.678Z,59.96
2019-04-28T02:23:15.526Z,59.96
2019-04-28T02:25:45.064Z,59.06
2019-04-28T02:28:14.558Z,58.96
2019-04-28T02:30:49.189Z,58.11
2019-04-28T02:33:15.320Z,58.88
2019-04-28T02:35:45.055Z,59.77
2019-04-28T02:38:14.557Z,60.15
2019-04-28T02:40:44.179Z,60.07
2019-04-28T02:43:13.759Z,60.01
2019-04-28T02:45:43.622Z,60.08
2019-04-28T02:48:14.824Z,60.12
2019-04-28T02:50:50.890Z,59.85
2019-04-28T02:53:33.171Z,58.89
2019-04-28T02:56:01.192Z,58.84
2019-04-28T02:58:31.375Z,59.14
2019-04-28T03:01:11.155Z,59.70
2019-04-28T03:03:32.201Z,60.12
2019-04-28T03:06:01.847Z,59.50
2019-04-28T03:08:31.343Z,59.24
2019-04-28T03:11:02.435Z,58.58
2019-04-28T03:13:32.101Z,58.58
2019-04-28T03:16:01.944Z,58.89
2019-04-28T03:18:31.946Z,58.98
2019-04-28T03:21:04.238Z,58.88
2019-04-28T03:23:33.201Z,58.67
2019-04-28T03:26:04.298Z,58.86
2019-04-28T03:28:33.897Z,59.26
2019-04-28T03:31:36.597Z,59.10
2019-04-28T03:33:47.429Z,58.05
2019-04-28T03:36:15.617Z,58.45
2019-04-28T03:38:41.581Z,58.40
2019-04-28T03:41:11.814Z,58.08
2019-04-28T03:43:41.302Z,57.93
2019-04-28T03:46:15.101Z,58.25
2019-04-28T03:48:44.595Z,58.36
2019-04-28T03:51:14.102Z,58.48
2019-04-28T03:53:43.582Z,57.80
2019-04-28T03:56:13.176Z,57.77
2019-04-28T03:58:42.751Z,58.20
2019-04-28T04:01:12.252Z,58.26
2019-04-28T04:03:42.036Z,57.78
2019-04-28T04:06:11.446Z,57.59
2019-04-28T04:08:41.095Z,57.44
2019-04-28T04:11:11.003Z,57.61
2019-04-28T04:13:51.458Z,56.59
2019-04-28T04:16:31.748Z,56.61
2019-04-28T04:19:05.886Z,56.90
2019-04-28T04:21:37.053Z,57.04
2019-04-28T04:24:06.552Z,57.13
2019-04-28T04:26:36.034Z,56.82
2019-04-28T04:29:05.655Z,56.86
2019-04-28T04:31:35.210Z,56.82
2019-04-28T04:34:04.778Z,56.82
2019-04-28T04:36:34.474Z,56.87
2019-04-28T04:39:06.399Z,56.92
2019-04-28T04:41:36.238Z,56.83
2019-04-28T04:44:05.861Z,56.67
2019-04-28T04:46:35.337Z,56.51
2019-04-28T04:49:24.269Z,56.29
2019-04-28T04:51:53.760Z,56.60
2019-04-28T04:54:23.221Z,56.34
2019-04-28T04:56:52.707Z,56.34
2019-04-28T04:59:22.173Z,56.05
2019-04-28T05:02:02.010Z,55.31
2019-04-28T05:04:36.079Z,55.66
2019-04-28T05:07:05.589Z,56.01
2019-04-28T05:09:35.047Z,55.61
2019-04-28T05:12:04.693Z,55.66
2019-04-28T05:14:34.320Z,55.84
2019-04-28T05:17:03.784Z,55.60
2019-04-28T05:19:33.271Z,55.88
2019-04-28T05:22:03.007Z,55.75
2019-04-28T05:24:51.134Z,56.03
2019-04-28T05:27:25.378Z,55.78
2019-04-28T05:29:56.855Z,55.90
2019-04-28T05:32:23.969Z,55.76
2019-04-28T05:34:53.547Z,55.89
2019-04-28T05:37:23.023Z,55.80
2019-04-28T05:39:52.738Z,56.21
2019-04-28T05:42:22.303Z,56.06
2019-04-28T05:44:51.868Z,56.27
2019-04-28T05:47:21.526Z,56.35
2019-04-28T05:49:52.668Z,56.25
2019-04-28T05:52:35.816Z,55.62
2019-04-28T05:55:17.093Z,55.46
2019-04-28T05:57:53.792Z,55.17
2019-04-28T06:00:25.610Z,54.93
2019-04-28T06:02:57.041Z,55.21
2019-04-28T06:05:26.661Z,55.37
2019-04-28T06:08:06.682Z,55.04
2019-04-28T06:10:36.283Z,55.15
2019-04-28T06:13:05.891Z,56.12
2019-04-28T06:15:35.899Z,56.13
2019-04-28T06:18:05.498Z,56.56
2019-04-28T06:20:35.046Z,56.63
2019-04-28T06:23:04.688Z,57.67
2019-04-28T06:25:34.194Z,57.82
2019-04-28T06:28:03.692Z,58.03
2019-04-28T06:30:33.236Z,58.76
2019-04-28T06:33:08.206Z,58.76
2019-04-28T06:35:33.952Z,59.22
2019-04-28T06:38:03.458Z,59.31
2019-04-28T06:40:32.954Z,59.29
2019-04-28T06:43:02.495Z,59.57
2019-04-28T06:45:31.951Z,59.62
2019-04-28T06:48:01.443Z,59.47
2019-04-28T06:50:31.023Z,59.77
2019-04-28T06:53:02.777Z,59.71
2019-04-28T06:55:31.874Z,59.03
2019-04-28T06:58:01.352Z,58.92
2019-04-28T07:00:30.813Z,58.91
2019-04-28T07:03:00.310Z,58.52
2019-04-28T07:05:29.859Z,58.57
2019-04-28T07:07:59.429Z,58.18
2019-04-28T07:10:28.882Z,58.59
2019-04-28T07:12:58.472Z,57.94
2019-04-28T07:15:28.079Z,58.29
2019-04-28T07:17:57.720Z,57.41
2019-04-28T07:20:42.028Z,57.89
2019-04-28T07:23:12.194Z,56.35
2019-04-28T07:25:41.704Z,56.06
2019-04-28T07:28:11.280Z,55.76
2019-04-28T07:30:41.823Z,56.17
2019-04-28T07:33:11.425Z,55.54
2019-04-28T07:35:40.932Z,55.13
2019-04-28T07:38:10.437Z,54.43
2019-04-28T07:40:40.033Z,55.11
2019-04-28T07:43:09.600Z,54.46
2019-04-28T07:45:39.247Z,54.29
2019-04-28T07:48:28.148Z,54.59
2019-04-28T07:50:57.628Z,54.17
2019-04-28T07:53:32.884Z,53.93
2019-04-28T07:56:02.406Z,53.00
2019-04-28T07:58:32.015Z,53.41
2019-04-28T08:01:01.628Z,51.30
2019-04-28T08:03:31.141Z,51.70
2019-04-28T08:06:00.618Z,51.20
2019-04-28T08:08:30.135Z,50.64
2019-04-28T08:10:59.622Z,50.84
2019-04-28T08:13:29.145Z,49.72
2019-04-28T08:15:58.631Z,49.49
2019-04-28T08:18:28.104Z,49.25
2019-04-28T08:20:57.602Z,48.78
2019-04-28T08:23:47.638Z,48.00
2019-04-28T08:26:17.414Z,48.54
2019-04-28T08:28:46.905Z,49.29
2019-04-28T08:31:18.026Z,47.45
2019-04-28T08:34:01.669Z,46.99
2019-04-28T08:36:23.091Z,47.21
2019-04-28T08:38:52.586Z,46.69
2019-04-28T08:41:22.097Z,46.56
2019-04-28T08:43:51.652Z,46.31
2019-04-28T08:46:21.243Z,46.98
2019-04-28T08:48:50.778Z,47.53
2019-04-28T08:51:20.419Z,47.81
2019-04-28T08:53:49.960Z,46.66
2019-04-28T08:56:19.471Z,47.68
2019-04-28T08:58:49.018Z,47.24
2019-04-28T09:01:18.483Z,47.14
2019-04-28T09:03:47.976Z,44.45
2019-04-28T09:06:17.596Z,44.43
2019-04-28T09:08:47.124Z,44.10
2019-04-28T09:11:16.570Z,44.20
2019-04-28T09:13:46.149Z,42.95
2019-04-28T09:16:15.654Z,43.10
2019-04-28T09:18:45.199Z,43.01
2019-04-28T09:21:14.843Z,42.58
2019-04-28T09:23:44.288Z,42.91
2019-04-28T09:26:13.815Z,42.69
2019-04-28T09:28:43.397Z,43.28
2019-04-28T09:31:12.964Z,42.34
2019-04-28T09:33:42.468Z,42.81
2019-04-28T09:36:12.023Z,42.03
2019-04-28T09:38:41.810Z,43.13
2019-04-28T09:41:11.290Z,43.04
2019-04-28T09:43:55.649Z,43.43
2019-04-28T09:46:26.790Z,43.07
2019-04-28T09:48:56.256Z,43.15
2019-04-28T09:51:25.777Z,42.68
2019-04-28T09:53:55.349Z,42.64
2019-04-28T09:56:24.877Z,43.40
2019-04-28T09:58:54.489Z,43.11
2019-04-28T10:01:23.956Z,43.79
2019-04-28T10:03:53.632Z,43.99
2019-04-28T10:06:23.188Z,43.34
2019-04-28T10:08:52.767Z,42.82
2019-04-28T10:11:30.425Z,44.09
2019-04-28T10:13:53.597Z,44.82
2019-04-28T10:16:23.241Z,45.02
2019-04-28T10:18:52.708Z,44.99
2019-04-28T10:21:22.374Z,44.79
2019-04-28T10:23:51.855Z,45.30
2019-04-28T10:26:21.427Z,46.36
2019-04-28T10:28:50.945Z,45.75
2019-04-28T10:31:20.704Z,46.77
2019-04-28T10:33:51.864Z,46.30
2019-04-28T10:36:21.514Z,45.45
2019-04-28T10:38:52.734Z,44.92
2019-04-28T10:41:32.888Z,45.88
2019-04-28T10:44:02.431Z,45.30
2019-04-28T10:46:31.977Z,44.31
2019-04-28T10:49:01.560Z,44.93
2019-04-28T10:51:31.033Z,44.88
2019-04-28T10:54:00.536Z,45.00
2019-04-28T10:56:30.326Z,45.28
2019-04-28T10:59:00.670Z,44.60
2019-04-28T11:01:30.189Z,45.25
2019-04-28T11:04:17.063Z,42.80
2019-04-28T11:06:46.635Z,42.62
2019-04-28T11:09:30.081Z,43.62
2019-04-28T11:11:49.226Z,41.99
2019-04-28T11:14:18.688Z,42.26
2019-04-28T11:16:48.324Z,42.00
2019-04-28T11:19:17.807Z,41.97
2019-04-28T11:22:06.835Z,42.89
2019-04-28T11:24:36.382Z,42.83
2019-04-28T11:27:06.165Z,42.07
2019-04-28T11:29:35.645Z,42.40
2019-04-28T11:32:05.240Z,43.03
2019-04-28T11:34:52.520Z,40.96
2019-04-28T11:37:22.125Z,41.58
2019-04-28T11:39:52.198Z,40.57
2019-04-28T11:42:21.695Z,40.85
2019-04-28T11:44:51.181Z,40.49
2019-04-28T11:47:22.345Z,39.79
2019-04-28T11:49:51.831Z,39.19
2019-04-28T11:52:21.351Z,39.26
2019-04-28T11:54:50.847Z,40.09
2019-04-28T11:57:20.427Z,39.92
2019-04-28T11:59:49.926Z,40.63
2019-04-28T12:02:19.432Z,41.04
2019-04-28T12:04:49.064Z,41.00
2019-04-28T12:07:18.605Z,40.01
2019-04-28T12:10:04.201Z,40.07
2019-04-28T12:12:39.656Z,42.05
2019-04-28T12:15:29.303Z,41.12
2019-04-28T12:18:02.883Z,40.28
2019-04-28T12:20:32.323Z,39.14
2019-04-28T12:23:01.781Z,39.65
2019-04-28T12:25:31.346Z,40.34
2019-04-28T12:28:00.922Z,39.54
2019-04-28T12:30:30.390Z,40.18
2019-04-28T12:33:19.331Z,38.35
2019-04-28T12:35:48.802Z,38.21
2019-04-28T12:38:18.304Z,36.98
2019-04-28T12:40:47.892Z,38.55
2019-04-28T12:43:17.372Z,38.22
2019-04-28T12:45:47.021Z,38.62
2019-04-28T12:48:16.580Z,38.31
2019-04-28T12:50:52.917Z,39.02
2019-04-28T12:53:23.165Z,38.36
2019-04-28T12:55:52.639Z,39.17
2019-04-28T12:58:22.105Z,39.20
2019-04-28T13:00:53.285Z,39.74
2019-04-28T13:03:51.945Z,40.49
2019-04-28T13:06:22.910Z,41.26
2019-04-28T13:08:52.457Z,40.47
2019-04-28T13:11:21.981Z,40.66
2019-04-28T13:13:51.551Z,40.54
2019-04-28T13:16:21.143Z,41.96
2019-04-28T13:18:50.720Z,42.17
2019-04-28T13:21:20.295Z,41.65
2019-04-28T13:23:49.828Z,42.08
2019-04-28T13:26:19.363Z,42.59
2019-04-28T13:28:48.856Z,42.48
2019-04-28T13:31:18.349Z,43.01
2019-04-28T13:33:56.411Z,42.98
2019-04-28T13:36:19.051Z,42.45
2019-04-28T13:38:48.682Z,43.02
2019-04-28T13:41:18.190Z,42.88
2019-04-28T13:43:47.639Z,42.61
2019-04-28T13:46:17.142Z,42.89
2019-04-28T13:48:46.648Z,42.99
2019-04-28T13:51:16.150Z,43.21
2019-04-28T13:53:45.636Z,41.32
2019-04-28T13:56:15.170Z,40.08
2019-04-28T13:58:45.069Z,40.50
2019-04-28T14:01:25.034Z,39.63
2019-04-28T14:03:57.105Z,39.34
2019-04-28T14:06:28.919Z,36.79
2019-04-28T14:08:58.553Z,36.16
2019-04-28T14:11:28.069Z,36.17
2019-04-28T14:13:57.573Z,36.97
2019-04-28T14:16:27.058Z,38.24
2019-04-28T14:18:56.688Z,39.56
2019-04-28T14:21:26.218Z,39.97
2019-04-28T14:23:55.720Z,39.83
2019-04-28T14:26:25.257Z,40.34
2019-04-28T14:28:54.720Z,41.20
2019-04-28T14:31:24.436Z,41.11
2019-04-28T14:33:54.027Z,41.93
2019-04-28T14:36:23.496Z,41.56
2019-04-28T14:38:53.100Z,41.20
2019-04-28T14:41:22.633Z,41.21
2019-04-28T14:43:52.108Z,41.79
2019-04-28T14:46:21.572Z,41.47
2019-04-28T14:48:51.127Z,40.71
2019-04-28T14:51:20.676Z,41.18
2019-04-28T14:53:50.149Z,41.19
2019-04-28T14:56:19.622Z,41.48
2019-04-28T14:58:49.146Z,41.81
2019-04-28T15:01:38.239Z,40.97
2019-04-28T15:04:09.397Z,40.18
2019-04-28T15:06:40.570Z,39.89
2019-04-28T15:09:26.508Z,40.44
2019-04-28T15:11:57.625Z,40.15
2019-04-28T15:14:27.109Z,40.22
2019-04-28T15:16:56.572Z,40.17
2019-04-28T15:19:26.099Z,39.62
2019-04-28T15:21:55.619Z,40.07
2019-04-28T15:24:25.078Z,40.23
2019-04-28T15:26:54.584Z,40.49
2019-04-28T15:29:24.023Z,40.39
2019-04-28T15:31:53.535Z,40.61
2019-04-28T15:34:22.979Z,41.50
2019-04-28T15:36:52.460Z,40.41
2019-04-28T15:39:21.979Z,40.69
2019-04-28T15:41:51.466Z,41.35
2019-04-28T15:44:20.949Z,41.23
2019-04-28T15:46:50.447Z,41.71
2019-04-28T15:49:19.932Z,41.03
2019-04-28T15:51:49.472Z,41.02
2019-04-28T15:54:19.026Z,41.11
2019-04-28T15:56:48.492Z,41.19
2019-04-28T15:59:18.063Z,41.88
2019-04-28T16:01:47.590Z,42.98
2019-04-28T16:04:18.419Z,42.28
2019-04-28T16:06:48.114Z,42.37
2019-04-28T16:09:17.687Z,41.87
2019-04-28T16:11:47.246Z,41.12
2019-04-28T16:14:16.769Z,41.03
2019-04-28T16:16:46.204Z,41.79
2019-04-28T16:19:15.711Z,42.32
2019-04-28T16:21:45.257Z,41.54
2019-04-28T16:24:15.944Z,42.45
2019-04-28T16:26:45.494Z,43.08
2019-04-28T16:29:15.065Z,43.27
2019-04-28T16:31:44.567Z,42.20
2019-04-28T16:34:14.049Z,42.02
2019-04-28T16:36:43.537Z,41.27
2019-04-28T16:39:13.065Z,39.90
2019-04-28T16:41:47.534Z,38.88
2019-04-28T16:44:17.348Z,37.89
2019-04-28T16:46:47.182Z,37.32
2019-04-28T16:49:16.763Z,36.01
2019-04-28T16:51:46.219Z,35.21
2019-04-28T16:54:15.779Z,35.25
2019-04-28T16:56:49.592Z,34.74
2019-04-28T16:59:23.412Z,35.26
2019-04-28T17:01:57.409Z,35.70
2019-04-28T17:04:26.982Z,35.97
2019-04-28T17:06:56.518Z,35.24
2019-04-28T17:09:26.173Z,35.05
2019-04-28T17:11:55.706Z,34.72
2019-04-28T17:14:25.277Z,34.70
2019-04-28T17:16:54.831Z,34.29
2019-04-28T17:19:24.648Z,33.52
2019-04-28T17:21:54.285Z,32.66
2019-04-28T17:24:23.931Z,31.55
2019-04-28T17:26:53.472Z,30.41
2019-04-28T17:29:23.381Z,29.59
2019-04-28T17:31:53.194Z,29.48
2019-04-28T17:34:22.757Z,29.00
2019-04-28T17:36:52.368Z,27.76
2019-04-28T17:39:23.378Z,27.57
2019-04-28T17:41:52.883Z,27.49
2019-04-28T17:44:22.412Z,27.69
2019-04-28T17:46:51.982Z,27.08
2019-04-28T17:49:23.234Z,26.59
2019-04-28T17:51:52.827Z,26.29
2019-04-28T17:54:22.296Z,26.08
2019-04-28T17:56:51.797Z,26.71
2019-04-28T17:59:24.961Z,26.43
2019-04-28T18:02:11.861Z,25.98
2019-04-28T18:04:57.831Z,26.42
2019-04-28T18:07:29.125Z,26.05
2019-04-28T18:09:58.687Z,26.88
2019-04-28T18:12:28.323Z,27.17
2019-04-28T18:14:59.485Z,26.81
2019-04-28T18:17:39.301Z,26.92
2019-04-28T18:20:12.127Z,27.42
2019-04-28T18:22:41.703Z,28.41
2019-04-28T18:25:11.767Z,30.46
2019-04-28T18:27:41.281Z,30.60
2019-04-28T18:30:12.536Z,30.49
2019-04-28T18:32:52.336Z,31.38
2019-04-28T18:35:30.709Z,32.38
2019-04-28T18:38:03.105Z,33.74
2019-04-28T18:40:40.415Z,34.69
2019-04-28T18:43:15.931Z,35.41
2019-04-28T18:45:45.485Z,36.59
2019-04-28T18:48:15.103Z,37.51
2019-04-28T18:50:44.707Z,38.30
2019-04-28T18:53:14.282Z,39.38
2019-04-28T18:55:43.877Z,41.14
2019-04-28T18:58:13.360Z,40.91
2019-04-28T19:00:44.600Z,41.91
2019-04-28T19:03:14.248Z,42.39
2019-04-28T19:05:45.388Z,43.40
2019-04-28T19:08:19.539Z,44.01
2019-04-28T19:10:56.593Z,44.98
2019-04-28T19:13:27.722Z,45.34
2019-04-28T19:16:10.858Z,45.55
2019-04-28T19:18:42.076Z,46.54
2019-04-28T19:21:11.562Z,47.04
2019-04-28T19:23:41.148Z,48.03
2019-04-28T19:26:10.832Z,48.02
2019-04-28T19:28:40.477Z,49.23
2019-04-28T19:31:09.939Z,49.67
2019-04-28T19:33:39.524Z,49.69
2019-04-28T19:36:09.162Z,49.86
2019-04-28T19:38:38.666Z,50.61
2019-04-28T19:41:08.268Z,50.51
2019-04-28T19:43:37.852Z,51.43
2019-04-28T19:46:09.041Z,51.57
2019-04-28T19:48:38.653Z,51.96
2019-04-28T19:51:08.143Z,52.49
2019-04-28T19:53:37.707Z,52.66
2019-04-28T19:56:11.584Z,53.25
2019-04-28T19:58:42.750Z,53.56
2019-04-28T20:01:16.935Z,53.72
2019-04-28T20:03:46.539Z,54.01
2019-04-28T20:06:16.073Z,54.25
2019-04-28T20:08:45.702Z,54.73
2019-04-28T20:11:16.294Z,55.48
2019-04-28T20:13:45.829Z,54.96
2019-04-28T20:16:15.326Z,55.30
2019-04-28T20:18:44.843Z,55.86
2019-04-28T20:21:14.523Z,56.25
2019-04-28T20:23:44.080Z,56.12
2019-04-28T20:26:13.584Z,56.19
2019-04-28T20:28:43.131Z,56.76
2019-04-28T20:31:12.654Z,56.97
2019-04-28T20:33:42.193Z,56.91
2019-04-28T20:36:13.294Z,57.71
2019-04-28T20:38:42.997Z,57.23
2019-04-28T20:41:22.976Z,57.73
2019-04-28T20:43:54.111Z,58.26
2019-04-28T20:46:23.616Z,58.55
2019-04-28T20:48:53.124Z,58.99
2019-04-28T20:51:41.995Z,59.02
2019-04-28T20:54:11.566Z,59.12
2019-04-28T20:56:41.078Z,58.87
2019-04-28T20:59:10.521Z,59.13
2019-04-28T21:01:40.115Z,59.72
2019-04-28T21:04:09.702Z,60.08
2019-04-28T21:06:39.154Z,60.13
2019-04-28T21:09:09.717Z,59.81
2019-04-28T21:11:39.300Z,59.72
2019-04-28T21:14:08.755Z,60.12
2019-04-28T21:16:38.331Z,59.99
2019-04-28T21:19:07.798Z,60.24
2019-04-28T21:21:37.313Z,60.22
2019-04-28T21:24:06.846Z,60.07
2019-04-28T21:26:36.316Z,60.33
2019-04-28T21:29:05.801Z,60.73
2019-04-28T21:31:35.274Z,60.55
2019-04-28T21:34:04.839Z,60.76
2019-04-28T21:36:34.314Z,60.72
2019-04-28T21:39:05.054Z,60.67
2019-04-28T21:41:34.586Z,61.20
2019-04-28T21:44:18.892Z,61.61
2019-04-28T21:46:52.469Z,61.39
2019-04-28T21:49:29.413Z,61.50
2019-04-28T21:51:58.929Z,61.87
2019-04-28T21:54:28.571Z,61.83
2019-04-28T21:56:58.019Z,61.59
2019-04-28T21:59:27.488Z,61.90
2019-04-28T22:01:58.538Z,61.86
2019-04-28T22:04:28.285Z,62.21
2019-04-28T22:06:57.914Z,62.08
2019-04-28T22:09:27.369Z,62.26
2019-04-28T22:11:56.923Z,62.25
2019-04-28T22:14:26.485Z,61.97
2019-04-28T22:16:57.173Z,61.94
2019-04-28T22:19:26.699Z,61.90
2019-04-28T22:21:56.193Z,62.14
2019-04-28T22:24:42.701Z,62.22
2019-04-28T22:27:13.151Z,62.10
2019-04-28T22:29:42.611Z,62.01
2019-04-28T22:32:12.113Z,62.01
2019-04-28T22:34:41.649Z,61.70
2019-04-28T22:37:11.141Z,61.95
2019-04-28T22:39:40.622Z,62.22
2019-04-28T22:42:10.279Z,62.21
2019-04-28T22:44:39.865Z,62.35
2019-04-28T22:47:09.325Z,62.41
2019-04-28T22:49:38.805Z,62.41
2019-04-28T22:52:08.283Z,62.42
2019-04-28T22:54:41.869Z,62.50
2019-04-28T22:57:21.682Z,62.42
2019-04-28T22:59:52.810Z,62.36
2019-04-28T23:02:23.991Z,62.36
2019-04-28T23:05:07.027Z,62.28
2019-04-28T23:07:36.493Z,62.46
2019-04-28T23:10:09.270Z,62.60
2019-04-28T23:12:38.716Z,62.53
2019-04-28T23:15:09.035Z,62.75
2019-04-28T23:17:38.572Z,62.94
2019-04-28T23:20:12.276Z,62.65
2019-04-28T23:22:47.169Z,62.43
2019-04-28T23:25:14.803Z,62.58
2019-04-28T23:27:44.312Z,63.03
2019-04-28T23:30:17.055Z,63.00
2019-04-28T23:32:46.557Z,63.23
2019-04-28T23:35:16.027Z,63.28
2019-04-28T23:37:45.582Z,63.26
2019-04-28T23:40:15.572Z,63.59
2019-04-28T23:42:46.696Z,63.53
2019-04-28T23:45:16.350Z,63.57
2019-04-28T23:47:45.970Z,63.49
2019-04-28T23:50:17.437Z,63.36
2019-04-28T23:52:48.644Z,63.51
2019-04-28T23:55:18.947Z,63.40
2019-04-28T23:57:48.474Z,63.51
